createdAt,value
2018-03-23T00:01:42.176Z,16.60
2018-03-23T00:04:08.116Z,20.35
2018-03-23T00:06:34.912Z,20.27
2018-03-23T00:09:00.870Z,18.25
2018-03-23T00:11:26.844Z,20.30
2018-03-23T00:13:52.895Z,21.17
2018-03-23T00:16:18.836Z,18.37
2018-03-23T00:18:44.797Z,19.87
2018-03-23T00:21:10.729Z,21.40
2018-03-23T00:23:36.814Z,22.00
2018-03-23T00:26:02.760Z,19.58
2018-03-23T00:28:28.742Z,19.87
2018-03-23T00:30:54.677Z,22.85
2018-03-23T00:33:20.644Z,23.00
2018-03-23T00:35:46.580Z,26.12
2018-03-23T00:38:12.692Z,22.00
2018-03-23T00:40:38.656Z,19.85
2018-03-23T00:43:04.587Z,21.67
2018-03-23T00:45:30.568Z,20.77
2018-03-23T00:47:56.491Z,21.17
2018-03-23T00:50:22.465Z,22.93
2018-03-23T00:52:49.152Z,22.98
2018-03-23T00:55:15.085Z,19.60
2018-03-23T00:57:41.176Z,23.90
2018-03-23T01:00:07.144Z,21.17
2018-03-23T01:02:33.109Z,21.60
2018-03-23T01:04:59.077Z,24.12
2018-03-23T01:07:25.041Z,26.67
2018-03-23T01:09:51.716Z,22.95
2018-03-23T01:12:17.807Z,25.33
2018-03-23T01:14:43.896Z,23.00
2018-03-23T01:17:09.849Z,22.95
2018-03-23T01:19:36.532Z,23.62
2018-03-23T01:22:02.510Z,25.60
2018-03-23T01:24:29.258Z,22.10
2018-03-23T01:26:55.335Z,26.17
2018-03-23T01:29:21.272Z,22.37
2018-03-23T01:31:47.244Z,26.40
2018-03-23T01:34:13.181Z,24.55
2018-03-23T01:36:39.144Z,26.50
2018-03-23T01:39:05.080Z,24.90
2018-03-23T01:41:31.911Z,29.03
2018-03-23T01:43:57.889Z,23.70
2018-03-23T01:46:23.825Z,23.85
2018-03-23T01:48:49.779Z,25.30
2018-03-23T01:51:15.718Z,24.37
2018-03-23T01:53:42.420Z,23.40
2018-03-23T01:56:08.347Z,23.40
2018-03-23T01:58:34.453Z,25.43
2018-03-23T02:01:00.382Z,22.52
2018-03-23T02:03:26.317Z,24.83
2018-03-23T02:05:52.278Z,23.30
2018-03-23T02:08:18.226Z,25.35
2018-03-23T02:10:44.239Z,28.20
2018-03-23T02:13:10.210Z,26.50
2018-03-23T02:15:36.407Z,26.58
2018-03-23T02:18:02.351Z,25.20
2018-03-23T02:20:28.353Z,24.90
2018-03-23T02:22:54.307Z,28.02
2018-03-23T02:25:20.233Z,23.08
2018-03-23T02:27:46.213Z,24.00
2018-03-23T02:30:12.151Z,27.25
2018-03-23T02:32:38.310Z,26.00
2018-03-23T02:35:05.044Z,25.15
2018-03-23T02:37:30.990Z,25.90
2018-03-23T02:39:56.971Z,24.27
2018-03-23T02:42:22.950Z,24.65
2018-03-23T02:44:48.880Z,24.37
2018-03-23T02:47:14.852Z,24.10
2018-03-23T02:49:40.775Z,22.85
2018-03-23T02:52:06.861Z,28.80
2018-03-23T02:54:32.800Z,22.80
2018-03-23T02:56:58.783Z,26.50
2018-03-23T02:59:24.736Z,23.87
2018-03-23T03:01:50.722Z,26.27
2018-03-23T03:04:16.660Z,22.45
2018-03-23T03:06:42.747Z,25.57
2018-03-23T03:09:09.453Z,26.23
2018-03-23T03:11:35.417Z,21.67
2018-03-23T03:14:02.217Z,24.20
2018-03-23T03:16:28.179Z,25.17
2018-03-23T03:18:54.118Z,30.88
2018-03-23T03:21:20.056Z,23.07
2018-03-23T03:23:46.041Z,28.00
2018-03-23T03:26:12.724Z,25.42
2018-03-23T03:28:38.728Z,25.52
2018-03-23T03:31:04.661Z,26.70
2018-03-23T03:33:30.640Z,25.40
2018-03-23T03:35:57.315Z,26.05
2018-03-23T03:38:23.257Z,24.70
2018-03-23T03:40:49.349Z,24.60
2018-03-23T03:43:15.297Z,21.95
2018-03-23T03:45:41.270Z,28.90
2018-03-23T03:48:07.962Z,24.63
2018-03-23T03:50:33.936Z,28.90
2018-03-23T03:53:00.610Z,26.10
2018-03-23T03:55:26.642Z,27.08
2018-03-23T03:57:52.572Z,23.87
2018-03-23T04:00:18.523Z,24.80
2018-03-23T04:02:44.504Z,28.00
2018-03-23T04:05:10.434Z,27.13
2018-03-23T04:07:36.396Z,24.17
2018-03-23T04:10:02.328Z,26.15
2018-03-23T04:12:29.052Z,27.53
2018-03-23T04:14:55.124Z,26.35
2018-03-23T04:17:21.098Z,24.83
2018-03-23T04:19:47.783Z,24.35
2018-03-23T04:22:13.718Z,25.27
2018-03-23T04:24:39.716Z,25.93
2018-03-23T04:27:05.651Z,27.00
2018-03-23T04:29:31.757Z,28.63
2018-03-23T04:31:57.695Z,26.60
2018-03-23T04:34:23.622Z,23.93
2018-03-23T04:36:49.600Z,24.33
2018-03-23T04:39:16.292Z,26.15
2018-03-23T04:41:42.264Z,27.17
2018-03-23T04:44:08.195Z,27.62
2018-03-23T04:46:34.965Z,25.40
2018-03-23T04:49:00.921Z,25.00
2018-03-23T04:51:26.847Z,24.15
2018-03-23T04:53:52.807Z,29.03
2018-03-23T04:56:18.745Z,27.42
2018-03-23T04:58:44.713Z,26.53
2018-03-23T05:01:10.692Z,24.27
2018-03-23T05:03:36.637Z,24.98
2018-03-23T05:06:02.591Z,22.62
2018-03-23T05:08:29.415Z,21.87
2018-03-23T05:10:55.378Z,25.77
2018-03-23T05:13:21.540Z,26.65
2018-03-23T05:15:47.495Z,22.23
2018-03-23T05:18:13.468Z,22.65
2018-03-23T05:20:39.543Z,24.75
2018-03-23T05:23:05.486Z,24.85
2018-03-23T05:25:32.193Z,25.63
2018-03-23T05:27:58.256Z,24.75
2018-03-23T05:30:24.240Z,26.15
2018-03-23T05:32:50.181Z,24.85
2018-03-23T05:35:17.029Z,30.48
2018-03-23T05:37:43.742Z,22.23
2018-03-23T05:40:09.676Z,23.25
2018-03-23T05:42:35.648Z,25.40
2018-03-23T05:45:01.578Z,27.75
2018-03-23T05:47:27.553Z,24.80
2018-03-23T05:49:54.245Z,26.23
2018-03-23T05:52:20.324Z,27.05
2018-03-23T05:54:47.000Z,25.50
2018-03-23T05:57:12.961Z,23.08
2018-03-23T05:59:38.900Z,21.77
2018-03-23T06:02:05.612Z,27.00
2018-03-23T06:04:31.561Z,24.27
2018-03-23T06:06:58.307Z,21.70
2018-03-23T06:09:24.997Z,26.70
2018-03-23T06:11:50.993Z,23.45
2018-03-23T06:14:17.862Z,24.70
2018-03-23T06:16:43.824Z,30.33
2018-03-23T06:19:10.530Z,26.40
2018-03-23T06:21:36.460Z,23.00
2018-03-23T06:24:02.448Z,25.73
2018-03-23T06:26:28.392Z,25.23
2018-03-23T06:28:54.359Z,25.70
2018-03-23T06:31:21.050Z,28.38
2018-03-23T06:33:47.020Z,26.50
2018-03-23T06:36:13.743Z,26.75
2018-03-23T06:38:39.824Z,29.15
2018-03-23T06:41:05.792Z,26.10
2018-03-23T06:43:31.775Z,32.67
2018-03-23T06:45:57.732Z,29.92
2018-03-23T06:48:23.664Z,29.00
2018-03-23T06:50:49.652Z,27.10
2018-03-23T06:53:15.597Z,30.52
2018-03-23T06:55:42.340Z,35.23
2018-03-23T06:58:08.278Z,27.33
2018-03-23T07:00:34.987Z,30.87
2018-03-23T07:03:00.973Z,29.95
2018-03-23T07:05:26.901Z,25.33
2018-03-23T07:07:52.869Z,24.73
2018-03-23T07:10:18.824Z,26.05
2018-03-23T07:12:44.948Z,25.67
2018-03-23T07:15:11.041Z,25.00
2018-03-23T07:17:37.000Z,23.08
2018-03-23T07:20:02.972Z,21.83
2018-03-23T07:22:28.917Z,23.67
2018-03-23T07:24:55.593Z,26.57
2018-03-23T07:27:21.597Z,23.85
2018-03-23T07:29:48.276Z,24.30
2018-03-23T07:32:14.370Z,27.70
2018-03-23T07:34:40.307Z,23.23
2018-03-23T07:37:06.296Z,27.00
2018-03-23T07:39:32.241Z,26.62
2018-03-23T07:41:58.203Z,24.13
2018-03-23T07:44:24.925Z,27.48
2018-03-23T07:46:50.953Z,25.77
2018-03-23T07:49:16.887Z,27.42
2018-03-23T07:51:42.847Z,50.83
2018-03-23T07:54:08.788Z,27.40
2018-03-23T07:56:34.908Z,23.60
2018-03-23T07:59:00.859Z,23.55
2018-03-23T08:01:26.832Z,20.75
2018-03-23T08:03:53.540Z,22.40
2018-03-23T08:06:19.499Z,17.77
2018-03-23T08:08:45.464Z,19.73
2018-03-23T08:11:11.407Z,18.00
2018-03-23T08:13:37.656Z,22.73
2018-03-23T08:16:04.349Z,19.02
2018-03-23T08:18:30.292Z,18.65
2018-03-23T08:20:56.379Z,16.03
2018-03-23T08:23:22.309Z,13.23
2018-03-23T08:25:48.295Z,11.20
2018-03-23T08:28:14.966Z,12.27
2018-03-23T08:30:40.936Z,12.60
2018-03-23T08:33:06.874Z,10.95
2018-03-23T08:35:33.732Z,15.23
2018-03-23T08:37:59.666Z,11.50
2018-03-23T08:40:25.650Z,12.10
2018-03-23T08:42:52.341Z,11.05
2018-03-23T08:45:18.270Z,10.00
2018-03-23T08:47:44.281Z,10.97
2018-03-23T08:50:10.216Z,9.38
2018-03-23T08:52:36.305Z,9.40
2018-03-23T08:55:02.259Z,10.43
2018-03-23T08:57:28.265Z,10.05
2018-03-23T08:59:54.192Z,8.98
2018-03-23T09:02:20.287Z,11.13
2018-03-23T09:04:46.989Z,10.35
2018-03-23T09:07:12.977Z,12.77
2018-03-23T09:09:38.959Z,10.27
2018-03-23T09:12:04.904Z,10.20
2018-03-23T09:14:31.020Z,10.50
2018-03-23T09:16:56.965Z,13.93
2018-03-23T09:19:23.076Z,20.98
2018-03-23T09:21:49.023Z,10.38
2018-03-23T09:24:15.036Z,9.73
2018-03-23T09:26:40.982Z,9.48
2018-03-23T09:29:06.956Z,8.83
2018-03-23T09:31:32.892Z,9.98
2018-03-23T09:33:58.842Z,8.03
2018-03-23T09:36:24.920Z,7.83
2018-03-23T09:38:50.861Z,7.22
2018-03-23T09:41:16.877Z,7.27
2018-03-23T09:43:42.824Z,6.97
2018-03-23T09:46:08.792Z,6.30
2018-03-23T09:48:35.465Z,6.78
2018-03-23T09:51:01.436Z,6.60
2018-03-23T09:53:27.389Z,7.40
2018-03-23T09:55:54.225Z,7.50
2018-03-23T09:58:20.947Z,7.62
2018-03-23T10:00:46.928Z,7.90
2018-03-23T10:03:12.889Z,7.90
2018-03-23T10:05:38.836Z,8.57
2018-03-23T10:08:04.945Z,12.03
2018-03-23T10:10:30.878Z,17.80
2018-03-23T10:12:57.613Z,15.80
2018-03-23T10:15:24.471Z,13.70
2018-03-23T10:17:50.455Z,15.15
2018-03-23T10:20:16.398Z,14.13
2018-03-23T10:22:43.238Z,13.73
2018-03-23T10:25:09.949Z,16.05
2018-03-23T10:27:35.884Z,18.20
2018-03-23T10:30:01.825Z,14.80
2018-03-23T10:32:28.648Z,14.43
2018-03-23T10:34:54.613Z,12.90
2018-03-23T10:37:20.561Z,11.88
2018-03-23T10:39:46.577Z,12.10
2018-03-23T10:42:12.530Z,12.27
2018-03-23T10:44:38.464Z,11.25
2018-03-23T10:47:04.551Z,10.80
2018-03-23T10:49:30.487Z,11.38
2018-03-23T10:51:56.476Z,11.40
2018-03-23T10:54:22.425Z,11.90
2018-03-23T10:56:48.355Z,10.30
2018-03-23T10:59:14.319Z,10.23
2018-03-23T11:01:41.008Z,10.27
2018-03-23T11:04:07.096Z,11.82
2018-03-23T11:06:33.035Z,7.12
2018-03-23T11:08:59.007Z,5.90
2018-03-23T11:11:24.942Z,5.05
2018-03-23T11:13:51.812Z,6.27
2018-03-23T11:16:17.757Z,4.30
2018-03-23T11:18:43.849Z,5.63
2018-03-23T11:21:09.843Z,5.10
2018-03-23T11:23:35.797Z,7.57
2018-03-23T11:26:01.768Z,9.60
2018-03-23T11:28:27.732Z,6.72
2018-03-23T11:30:53.672Z,6.03
2018-03-23T11:33:20.687Z,7.62
2018-03-23T11:35:46.615Z,9.43
2018-03-23T11:38:13.328Z,8.63
2018-03-23T11:40:39.293Z,10.80
2018-03-23T11:43:05.285Z,8.18
2018-03-23T11:45:31.988Z,7.85
2018-03-23T11:47:58.075Z,9.77
2018-03-23T11:50:24.075Z,9.75
2018-03-23T11:52:50.777Z,12.10
2018-03-23T11:55:16.745Z,8.90
2018-03-23T11:57:43.429Z,11.10
2018-03-23T12:00:09.405Z,12.18
2018-03-23T12:02:36.089Z,10.50
2018-03-23T12:05:02.177Z,9.80
2018-03-23T12:07:28.137Z,10.77
2018-03-23T12:09:54.113Z,10.10
2018-03-23T12:12:22.593Z,11.52
2018-03-23T12:14:49.417Z,10.95
2018-03-23T12:17:15.397Z,9.30
2018-03-23T12:19:41.365Z,10.60
2018-03-23T12:22:07.376Z,11.25
2018-03-23T12:24:33.311Z,10.10
2018-03-23T12:26:59.304Z,11.17
2018-03-23T12:29:25.244Z,10.98
2018-03-23T12:31:51.214Z,10.57
2018-03-23T12:34:17.148Z,12.02
2018-03-23T12:36:43.071Z,11.10
2018-03-23T12:39:09.071Z,10.50
2018-03-23T12:41:35.015Z,9.70
2018-03-23T12:44:01.031Z,10.83
2018-03-23T12:46:27.006Z,10.52
2018-03-23T12:48:53.741Z,11.27
2018-03-23T12:51:19.689Z,10.88
2018-03-23T12:53:46.427Z,11.10
2018-03-23T12:56:13.179Z,10.13
2018-03-23T12:58:39.135Z,11.02
2018-03-23T13:01:05.132Z,11.07
2018-03-23T13:03:31.113Z,10.43
2018-03-23T13:05:57.076Z,9.50
2018-03-23T13:08:23.180Z,12.35
2018-03-23T13:10:49.877Z,12.70
2018-03-23T13:13:15.877Z,17.20
2018-03-23T13:15:42.124Z,12.57
2018-03-23T13:18:08.081Z,12.95
2018-03-23T13:20:34.074Z,14.27
2018-03-23T13:23:00.037Z,13.57
2018-03-23T13:25:26.131Z,15.48
2018-03-23T13:27:52.096Z,15.05
2018-03-23T13:30:18.093Z,13.25
2018-03-23T13:32:44.824Z,12.37
2018-03-23T13:35:10.788Z,12.82
2018-03-23T13:37:36.796Z,13.13
2018-03-23T13:40:03.481Z,11.10
2018-03-23T13:42:29.483Z,13.90
2018-03-23T13:44:55.427Z,11.40
2018-03-23T13:47:22.145Z,10.60
2018-03-23T13:49:48.081Z,11.85
2018-03-23T13:52:14.071Z,10.00
2018-03-23T13:54:40.051Z,10.70
2018-03-23T13:57:06.152Z,11.55
2018-03-23T13:59:32.143Z,10.98
2018-03-23T14:01:58.112Z,11.95
2018-03-23T14:04:24.064Z,13.30
2018-03-23T14:06:50.784Z,15.07
2018-03-23T14:09:16.764Z,9.23
2018-03-23T14:11:42.744Z,11.80
2018-03-23T14:14:08.848Z,10.50
2018-03-23T14:16:34.800Z,12.70
2018-03-23T14:19:01.537Z,10.53
2018-03-23T14:21:28.224Z,12.02
2018-03-23T14:23:54.208Z,12.85
2018-03-23T14:26:20.896Z,13.07
2018-03-23T14:28:47.039Z,14.43
2018-03-23T14:31:12.968Z,12.23
2018-03-23T14:33:38.980Z,12.60
2018-03-23T14:36:04.945Z,13.23
2018-03-23T14:38:30.896Z,11.80
2018-03-23T14:40:56.893Z,12.23
2018-03-23T14:43:22.845Z,10.63
2018-03-23T14:45:48.970Z,13.23
2018-03-23T14:48:14.943Z,10.57
2018-03-23T14:50:41.712Z,11.48
2018-03-23T14:53:07.791Z,9.73
2018-03-23T14:55:33.773Z,9.05
2018-03-23T14:57:59.762Z,8.32
2018-03-23T15:00:26.498Z,11.23
2018-03-23T15:02:52.505Z,11.02
2018-03-23T15:05:19.204Z,11.07
2018-03-23T15:07:45.178Z,9.35
2018-03-23T15:10:11.889Z,9.18
2018-03-23T15:12:37.931Z,8.95
2018-03-23T15:15:04.061Z,7.50
2018-03-23T15:17:30.757Z,9.25
2018-03-23T15:19:56.744Z,12.18
2018-03-23T15:22:22.713Z,11.27
2018-03-23T15:24:48.757Z,9.30
2018-03-23T15:27:14.716Z,8.20
2018-03-23T15:29:40.709Z,8.97
2018-03-23T15:32:06.670Z,8.25
2018-03-23T15:34:32.773Z,8.57
2018-03-23T15:36:59.514Z,7.85
2018-03-23T15:39:26.413Z,9.32
2018-03-23T15:41:52.420Z,10.55
2018-03-23T15:44:18.402Z,8.93
2018-03-23T15:46:45.123Z,12.80
2018-03-23T15:49:11.116Z,12.45
2018-03-23T15:51:37.087Z,14.98
2018-03-23T15:54:03.056Z,8.70
2018-03-23T15:56:29.172Z,10.85
2018-03-23T15:58:55.132Z,9.30
2018-03-23T16:01:21.131Z,9.33
2018-03-23T16:03:47.097Z,9.65
2018-03-23T16:06:13.799Z,9.85
2018-03-23T16:08:39.851Z,8.75
2018-03-23T16:11:06.558Z,10.35
2018-03-23T16:13:32.808Z,9.27
2018-03-23T16:15:58.763Z,9.40
2018-03-23T16:18:24.760Z,10.82
2018-03-23T16:20:50.711Z,9.80
2018-03-23T16:23:16.708Z,8.90
2018-03-23T16:25:42.668Z,10.82
2018-03-23T16:28:10.021Z,11.97
2018-03-23T16:30:35.999Z,10.30
2018-03-23T16:33:02.001Z,9.05
2018-03-23T16:35:27.954Z,9.18
2018-03-23T16:37:53.911Z,9.30
2018-03-23T16:40:19.897Z,9.30
2018-03-23T16:42:46.619Z,11.98
2018-03-23T16:45:12.740Z,11.40
2018-03-23T16:47:38.684Z,12.43
2018-03-23T16:50:05.390Z,11.93
2018-03-23T16:52:31.376Z,12.18
2018-03-23T16:54:57.364Z,11.23
2018-03-23T16:57:23.383Z,12.65
2018-03-23T16:59:49.362Z,12.05
2018-03-23T17:02:15.502Z,11.75
2018-03-23T17:04:41.493Z,12.48
2018-03-23T17:07:07.499Z,11.60
2018-03-23T17:09:33.441Z,13.68
2018-03-23T17:11:59.416Z,12.73
2018-03-23T17:14:25.545Z,12.32
2018-03-23T17:16:51.657Z,12.37
2018-03-23T17:19:17.685Z,17.17
2018-03-23T17:21:43.660Z,13.52
2018-03-23T17:24:09.639Z,14.23
2018-03-23T17:26:35.583Z,15.25
2018-03-23T17:29:01.583Z,13.73
2018-03-23T17:31:27.528Z,12.10
2018-03-23T17:33:54.378Z,12.97
2018-03-23T17:36:20.331Z,12.32
2018-03-23T17:38:46.331Z,13.03
2018-03-23T17:41:12.342Z,20.40
2018-03-23T17:43:39.022Z,12.65
2018-03-23T17:46:04.999Z,12.52
2018-03-23T17:48:31.725Z,11.95
2018-03-23T17:50:58.479Z,12.95
2018-03-23T17:53:24.460Z,15.70
2018-03-23T17:55:50.520Z,16.92
2018-03-23T17:58:17.220Z,13.57
2018-03-23T18:00:43.197Z,14.70
2018-03-23T18:03:09.148Z,12.93
2018-03-23T18:05:35.141Z,14.03
2018-03-23T18:08:01.090Z,14.65
2018-03-23T18:10:27.218Z,14.43
2018-03-23T18:12:53.179Z,14.23
2018-03-23T18:15:19.350Z,15.77
2018-03-23T18:17:45.292Z,12.75
2018-03-23T18:20:12.464Z,13.30
2018-03-23T18:22:38.620Z,13.88
2018-03-23T18:25:05.323Z,15.23
2018-03-23T18:27:31.328Z,12.98
2018-03-23T18:29:57.278Z,18.77
2018-03-23T18:32:23.655Z,16.10
2018-03-23T18:34:50.144Z,13.40
2018-03-23T18:37:17.249Z,14.75
2018-03-23T18:39:43.912Z,19.45
2018-03-23T18:42:10.435Z,14.68
2018-03-23T18:44:37.801Z,15.02
2018-03-23T18:47:04.725Z,15.38
2018-03-23T18:49:31.045Z,15.48
2018-03-23T18:51:57.624Z,15.48
2018-03-23T18:54:24.924Z,14.75
2018-03-23T18:56:51.827Z,14.35
2018-03-23T18:59:19.175Z,14.75
2018-03-23T19:01:45.315Z,16.27
2018-03-23T19:04:20.461Z,16.70
2018-03-23T19:06:47.449Z,15.48
2018-03-23T19:09:13.549Z,16.87
2018-03-23T19:11:40.866Z,15.70
2018-03-23T19:14:07.346Z,15.90
2018-03-23T19:16:33.578Z,15.27
2018-03-23T19:18:59.578Z,15.68
2018-03-23T19:21:26.781Z,18.95
2018-03-23T19:23:52.826Z,18.37
2018-03-23T19:26:20.083Z,16.75
2018-03-23T19:28:47.941Z,18.77
2018-03-23T19:31:14.536Z,17.95
2018-03-23T19:33:41.108Z,17.87
2018-03-23T19:36:07.128Z,20.05
2018-03-23T19:38:33.184Z,20.60
2018-03-23T19:41:00.400Z,17.67
2018-03-23T19:43:27.168Z,19.02
2018-03-23T19:45:54.816Z,22.67
2018-03-23T19:48:21.098Z,24.08
2018-03-23T19:50:47.351Z,21.35
2018-03-23T19:53:13.824Z,19.50
2018-03-23T19:55:41.980Z,18.77
2018-03-23T19:58:09.101Z,26.75
2018-03-23T20:00:35.923Z,22.45
2018-03-23T20:03:02.091Z,20.35
2018-03-23T20:05:29.120Z,21.27
2018-03-23T20:07:57.525Z,21.27
2018-03-23T20:10:25.687Z,23.20
2018-03-23T20:12:53.225Z,22.40
2018-03-23T20:15:19.614Z,20.90
2018-03-23T20:17:46.519Z,21.37
2018-03-23T20:20:14.058Z,24.52
2018-03-23T20:22:41.943Z,22.62
2018-03-23T20:25:08.287Z,23.75
2018-03-23T20:27:36.321Z,21.98
2018-03-23T20:30:03.795Z,23.98
2018-03-23T20:32:31.025Z,22.55
2018-03-23T20:34:58.036Z,24.67
2018-03-23T20:37:24.896Z,23.67
2018-03-23T20:39:52.905Z,22.92
2018-03-23T20:42:19.988Z,20.08
2018-03-23T20:44:48.140Z,22.33
2018-03-23T20:47:15.482Z,23.02
2018-03-23T20:49:42.400Z,26.52
2018-03-23T20:52:09.076Z,23.30
2018-03-23T20:54:35.622Z,25.40
2018-03-23T20:57:03.782Z,26.85
2018-03-23T20:59:29.966Z,25.25
2018-03-23T21:01:56.821Z,29.10
2018-03-23T21:04:25.403Z,27.25
2018-03-23T21:06:52.645Z,26.62
2018-03-23T21:09:20.530Z,24.55
2018-03-23T21:11:46.957Z,31.90
2018-03-23T21:14:13.753Z,28.85
2018-03-23T21:16:40.279Z,26.27
2018-03-23T21:19:07.327Z,25.73
2018-03-23T21:21:35.764Z,24.12
2018-03-23T21:24:03.814Z,27.08
2018-03-23T21:26:30.182Z,27.70
2018-03-23T21:28:56.339Z,28.35
2018-03-23T21:31:22.705Z,29.55
2018-03-23T21:33:50.065Z,34.50
2018-03-23T21:36:17.844Z,34.40
2018-03-23T21:38:45.030Z,29.70
2018-03-23T21:41:11.452Z,26.55
2018-03-23T21:43:37.529Z,27.00
2018-03-23T21:46:04.637Z,26.62
2018-03-23T21:48:30.661Z,27.98
2018-03-23T21:50:56.868Z,26.08
2018-03-23T21:53:23.996Z,27.60
2018-03-23T21:55:50.236Z,33.50
2018-03-23T21:58:16.940Z,27.83
2018-03-23T22:00:43.905Z,26.35
2018-03-23T22:03:10.785Z,23.75
2018-03-23T22:05:36.797Z,27.33
2018-03-23T22:08:04.735Z,27.50
2018-03-23T22:10:31.222Z,29.77
2018-03-23T22:12:57.403Z,27.92
2018-03-23T22:15:24.565Z,30.35
2018-03-23T22:17:50.929Z,26.15
2018-03-23T22:20:17.696Z,29.55
2018-03-23T22:22:45.827Z,27.80
2018-03-23T22:25:13.668Z,23.92
2018-03-23T22:27:40.409Z,24.25
2018-03-23T22:30:06.615Z,25.42
2018-03-23T22:32:33.368Z,24.95
2018-03-23T22:35:00.233Z,27.50
2018-03-23T22:37:26.660Z,27.52
2018-03-23T22:39:53.700Z,25.73
2018-03-23T22:42:21.299Z,27.20
2018-03-23T22:44:47.605Z,23.42
2018-03-23T22:47:13.658Z,25.85
2018-03-23T22:49:39.701Z,24.92
2018-03-23T22:52:06.459Z,24.95
2018-03-23T22:54:32.837Z,23.20
2018-03-23T22:56:58.876Z,22.02
2018-03-23T22:59:25.003Z,26.60
2018-03-23T23:01:51.026Z,26.23
2018-03-23T23:04:17.332Z,23.70
2018-03-23T23:06:43.332Z,23.20
2018-03-23T23:09:10.498Z,29.27
2018-03-23T23:11:36.502Z,23.05
2018-03-23T23:14:02.699Z,27.17
2018-03-23T23:16:28.723Z,22.60
2018-03-23T23:18:55.706Z,24.55
2018-03-23T23:21:22.095Z,28.70
2018-03-23T23:23:49.036Z,26.70
2018-03-23T23:26:15.723Z,28.27
2018-03-23T23:28:42.519Z,26.10
2018-03-23T23:31:09.130Z,25.60
2018-03-23T23:33:35.547Z,26.33
2018-03-23T23:36:01.720Z,27.70
2018-03-23T23:38:28.913Z,29.73
2018-03-23T23:40:55.522Z,27.08
2018-03-23T23:43:23.557Z,25.73
2018-03-23T23:45:49.613Z,32.45
2018-03-23T23:48:16.845Z,26.15
2018-03-23T23:50:42.828Z,28.02
2018-03-23T23:53:09.003Z,25.65
2018-03-23T23:55:35.277Z,30.10
2018-03-23T23:58:01.315Z,27.25
